createdAt,value
2022-09-06T00:02:42.807Z,15.42
2022-09-06T00:07:46.384Z,15.38
2022-09-06T00:12:50.188Z,15.32
2022-09-06T00:17:54.592Z,15.23
2022-09-06T00:23:04.536Z,15.10
2022-09-06T00:28:09.411Z,14.94
2022-09-06T00:33:14.103Z,14.80
2022-09-06T00:38:20.435Z,14.63
2022-09-06T00:43:30.313Z,14.47
2022-09-06T00:48:34.014Z,14.32
2022-09-06T00:53:37.687Z,14.19
2022-09-06T00:58:41.714Z,14.08
2022-09-06T01:03:46.642Z,13.97
2022-09-06T01:09:06.947Z,13.87
2022-09-06T01:14:34.948Z,13.78
2022-09-06T01:20:16.015Z,13.70
2022-09-06T01:26:06.320Z,13.64
2022-09-06T01:31:25.242Z,13.60
2022-09-06T01:36:45.769Z,13.60
2022-09-06T01:41:59.315Z,13.65
2022-09-06T01:47:21.463Z,13.71
2022-09-06T01:52:44.050Z,13.73
2022-09-06T01:58:10.175Z,13.75
2022-09-06T02:03:41.376Z,13.77
2022-09-06T02:08:48.224Z,13.78
2022-09-06T02:13:58.255Z,13.74
2022-09-06T02:19:23.715Z,13.68
2022-09-06T02:24:31.092Z,13.58
2022-09-06T02:29:36.630Z,13.75
2022-09-06T02:34:41.679Z,14.47
2022-09-06T02:39:45.304Z,14.60
2022-09-06T02:44:49.597Z,13.89
2022-09-06T02:49:53.630Z,13.38
2022-09-06T02:54:57.093Z,13.21
2022-09-06T03:00:00.428Z,13.70
2022-09-06T03:05:04.105Z,13.98
2022-09-06T03:10:07.747Z,14.04
2022-09-06T03:15:12.830Z,14.10
2022-09-06T03:20:16.254Z,13.86
2022-09-06T03:25:19.683Z,13.13
2022-09-06T03:30:23.364Z,13.20
2022-09-06T03:35:30.532Z,13.54
2022-09-06T03:40:36.788Z,13.71
2022-09-06T03:45:43.439Z,13.87
2022-09-06T03:50:53.060Z,13.99
2022-09-06T03:56:01.972Z,14.17
2022-09-06T04:01:12.059Z,14.25
2022-09-06T04:06:16.729Z,14.38
2022-09-06T04:11:32.629Z,14.48
2022-09-06T04:16:58.194Z,14.54
2022-09-06T04:22:13.830Z,14.61
2022-09-06T04:27:18.763Z,14.35
2022-09-06T04:32:22.119Z,13.74
2022-09-06T04:37:25.616Z,13.38
2022-09-06T04:42:29.077Z,13.42
2022-09-06T04:47:35.871Z,13.97
2022-09-06T04:52:39.185Z,14.31
2022-09-06T04:57:46.544Z,14.58
2022-09-06T05:02:52.001Z,14.79
2022-09-06T05:07:56.153Z,14.90
2022-09-06T05:12:59.910Z,15.05
2022-09-06T05:18:12.867Z,14.99
2022-09-06T05:23:33.877Z,14.37
2022-09-06T05:28:40.140Z,14.08
2022-09-06T05:33:44.885Z,14.01
2022-09-06T05:38:48.441Z,14.53
2022-09-06T05:43:54.802Z,14.98
2022-09-06T05:49:04.973Z,15.27
2022-09-06T05:54:11.580Z,15.07
2022-09-06T05:59:15.429Z,15.01
2022-09-06T06:04:18.994Z,15.03
2022-09-06T06:09:22.362Z,15.10
2022-09-06T06:14:25.668Z,15.31
2022-09-06T06:19:29.425Z,15.36
2022-09-06T06:24:33.642Z,15.49
2022-09-06T06:29:38.600Z,15.75
2022-09-06T06:34:42.085Z,16.08
2022-09-06T06:39:45.568Z,16.30
2022-09-06T06:44:49.005Z,16.48
2022-09-06T06:49:52.447Z,16.71
2022-09-06T06:54:58.847Z,16.83
2022-09-06T07:00:07.202Z,16.87
2022-09-06T07:10:36.654Z,16.60
2022-09-06T07:15:41.091Z,16.46
2022-09-06T07:26:15.801Z,16.35
2022-09-06T07:36:45.854Z,16.40
2022-09-06T07:41:51.021Z,16.43
2022-09-06T07:46:54.603Z,16.51
2022-09-06T07:52:00.279Z,16.64
2022-09-06T07:57:03.711Z,16.82
2022-09-06T08:02:10.457Z,16.95
2022-09-06T08:07:40.460Z,17.11
2022-09-06T08:12:59.700Z,17.29
2022-09-06T08:18:11.816Z,17.41
2022-09-06T08:23:20.177Z,17.45
2022-09-06T08:28:28.998Z,17.37
2022-09-06T08:33:34.198Z,17.34
2022-09-06T08:38:42.462Z,17.31
2022-09-06T08:49:33.440Z,17.92
2022-09-06T08:55:05.206Z,17.96
2022-09-06T09:00:20.510Z,18.10
2022-09-06T09:05:33.074Z,18.44
2022-09-06T09:10:43.776Z,18.86
2022-09-06T09:15:47.254Z,19.22
2022-09-06T09:20:52.191Z,19.69
2022-09-06T09:25:59.991Z,20.15
2022-09-06T09:31:03.609Z,20.54
2022-09-06T09:36:19.985Z,21.00
2022-09-06T09:41:49.600Z,21.24
2022-09-06T09:46:53.813Z,21.37
2022-09-06T09:52:12.105Z,21.49
2022-09-06T09:57:19.094Z,21.76
2022-09-06T10:02:32.233Z,22.30
2022-09-06T10:07:43.903Z,22.62
2022-09-06T10:12:47.509Z,22.69
2022-09-06T10:17:52.017Z,22.72
2022-09-06T10:23:05.922Z,22.66
2022-09-06T10:28:15.390Z,22.47
2022-09-06T10:34:00.362Z,22.49
2022-09-06T10:39:35.907Z,22.57
2022-09-06T10:44:54.240Z,22.41
2022-09-06T10:49:59.597Z,22.26
2022-09-06T10:55:22.724Z,22.14
2022-09-06T11:01:04.584Z,22.24
2022-09-06T11:06:22.502Z,22.42
2022-09-06T11:11:41.977Z,22.61
2022-09-06T11:17:00.176Z,22.72
2022-09-06T11:22:42.436Z,22.72
2022-09-06T11:27:53.931Z,22.72
2022-09-06T11:33:16.797Z,22.86
2022-09-06T11:38:25.836Z,23.13
2022-09-06T11:44:07.709Z,23.43
2022-09-06T11:49:40.378Z,23.36
2022-09-06T11:55:25.292Z,23.35
2022-09-06T12:01:39.983Z,23.52
2022-09-06T12:07:21.765Z,23.78
2022-09-06T12:12:52.156Z,23.88
2022-09-06T12:18:22.898Z,23.83
2022-09-06T12:24:45.875Z,23.78
2022-09-06T12:30:42.436Z,23.65
2022-09-06T12:36:02.306Z,23.69
2022-09-06T12:46:52.465Z,23.86
2022-09-06T12:52:34.182Z,23.94
2022-09-06T12:58:31.839Z,24.10
2022-09-06T13:03:54.022Z,24.42
2022-09-06T13:09:40.962Z,24.79
2022-09-06T13:22:33.887Z,25.12
2022-09-06T13:28:38.558Z,24.96
2022-09-06T13:34:11.110Z,24.67
2022-09-06T13:39:34.216Z,24.48
2022-09-06T13:44:40.343Z,24.26
2022-09-06T13:49:58.734Z,24.01
2022-09-06T13:55:23.061Z,23.82
2022-09-06T14:00:35.642Z,23.74
2022-09-06T14:05:48.081Z,23.73
2022-09-06T14:10:55.188Z,23.60
2022-09-06T14:15:58.758Z,23.62
2022-09-06T14:21:02.408Z,23.62
2022-09-06T14:26:14.884Z,23.52
2022-09-06T14:31:36.110Z,23.35
2022-09-06T14:36:56.453Z,23.09
2022-09-06T14:42:05.069Z,22.80
2022-09-06T14:47:17.262Z,22.58
2022-09-06T14:52:36.344Z,22.39
2022-09-06T14:58:00.376Z,22.26
2022-09-06T15:03:31.575Z,22.17
2022-09-06T15:09:09.970Z,22.23
2022-09-06T15:14:41.687Z,22.56
2022-09-06T15:20:05.732Z,22.81
2022-09-06T15:25:35.817Z,22.88
2022-09-06T15:30:50.793Z,22.69
2022-09-06T15:36:21.007Z,22.45
2022-09-06T15:41:27.839Z,22.09
2022-09-06T15:46:45.900Z,21.77
2022-09-06T15:51:51.813Z,21.55
2022-09-06T15:57:07.243Z,21.37
2022-09-06T16:02:30.712Z,21.20
2022-09-06T16:07:43.537Z,21.04
2022-09-06T16:12:58.155Z,20.87
2022-09-06T16:18:06.451Z,20.66
2022-09-06T16:23:13.119Z,20.41
2022-09-06T16:28:21.876Z,20.17
2022-09-06T16:33:25.607Z,19.95
2022-09-06T16:38:33.570Z,19.74
2022-09-06T16:43:38.877Z,19.53
2022-09-06T16:49:07.247Z,19.34
2022-09-06T16:54:15.004Z,19.16
2022-09-06T16:59:23.551Z,19.00
2022-09-06T17:04:29.705Z,18.85
2022-09-06T17:09:45.521Z,18.69
2022-09-06T17:14:54.706Z,18.53
2022-09-06T17:19:59.403Z,18.35
2022-09-06T17:25:04.544Z,18.18
2022-09-06T17:30:08.772Z,18.03
2022-09-06T17:35:17.319Z,17.89
2022-09-06T17:40:21.985Z,17.76
2022-09-06T17:45:28.330Z,17.61
2022-09-06T17:50:35.795Z,17.48
2022-09-06T17:55:41.422Z,17.37
2022-09-06T18:00:48.363Z,17.26
2022-09-06T18:05:52.112Z,17.14
2022-09-06T18:11:24.661Z,17.07
2022-09-06T18:16:34.740Z,17.02
2022-09-06T18:21:44.841Z,17.01
2022-09-06T18:26:54.965Z,17.00
2022-09-06T18:32:04.599Z,16.99
2022-09-06T18:37:13.219Z,16.97
2022-09-06T18:42:20.421Z,16.96
2022-09-06T18:47:58.553Z,16.96
2022-09-06T18:53:20.416Z,16.95
2022-09-06T18:58:57.026Z,16.94
2022-09-06T19:04:10.675Z,16.90
2022-09-06T19:09:57.029Z,16.85
2022-09-06T19:15:32.798Z,16.80
2022-09-06T19:20:53.015Z,16.80
2022-09-06T19:26:19.947Z,16.80
2022-09-06T19:32:03.907Z,16.80
2022-09-06T19:37:45.316Z,16.78
2022-09-06T19:43:23.953Z,16.72
2022-09-06T19:48:53.699Z,16.63
2022-09-06T19:54:19.911Z,16.51
2022-09-06T20:05:24.358Z,16.16
2022-09-06T20:10:35.093Z,15.98
2022-09-06T20:15:42.116Z,15.81
2022-09-06T20:20:45.690Z,15.67
2022-09-06T20:26:13.081Z,15.54
2022-09-06T20:31:18.934Z,15.40
2022-09-06T20:36:22.528Z,15.27
2022-09-06T20:41:26.965Z,15.11
2022-09-06T20:46:32.712Z,14.98
2022-09-06T20:51:38.800Z,14.85
2022-09-06T20:56:43.572Z,14.74
2022-09-06T21:01:47.579Z,14.60
2022-09-06T21:06:51.771Z,14.45
2022-09-06T21:11:57.741Z,14.33
2022-09-06T21:17:01.229Z,14.23
2022-09-06T21:22:04.618Z,14.58
2022-09-06T21:27:08.158Z,15.03
2022-09-06T21:32:11.560Z,14.77
2022-09-06T21:37:14.930Z,14.46
2022-09-06T21:42:18.902Z,14.25
2022-09-06T21:47:22.279Z,14.09
2022-09-06T21:52:26.715Z,13.99
2022-09-06T21:57:30.042Z,13.89
2022-09-06T22:02:34.496Z,13.77
2022-09-06T22:07:38.040Z,13.88
2022-09-06T22:12:45.905Z,14.54
2022-09-06T22:17:49.864Z,14.98
2022-09-06T22:22:53.139Z,15.15
2022-09-06T22:27:56.622Z,15.04
2022-09-06T22:33:00.191Z,14.46
2022-09-06T22:38:03.739Z,14.07
2022-09-06T22:43:12.900Z,13.79
2022-09-06T22:48:24.988Z,13.80
2022-09-06T22:53:29.575Z,14.38
2022-09-06T22:58:38.070Z,14.80
2022-09-06T23:03:42.759Z,15.04
2022-09-06T23:08:47.247Z,15.17
2022-09-06T23:13:55.747Z,15.00
2022-09-06T23:19:05.982Z,14.43
2022-09-06T23:24:11.548Z,14.03
2022-09-06T23:29:15.162Z,13.88
2022-09-06T23:34:18.688Z,14.28
2022-09-06T23:39:22.515Z,14.55
2022-09-06T23:44:25.992Z,14.64
2022-09-06T23:49:29.899Z,14.73
2022-09-06T23:54:43.424Z,14.80
2022-09-06T23:59:49.803Z,14.78
